createdAt,value
2023-04-10T00:02:00.536Z,99.07
2023-04-10T00:04:28.515Z,98.35
2023-04-10T00:06:55.482Z,99.13
2023-04-10T00:09:22.043Z,98.73
2023-04-10T00:11:48.586Z,98.62
2023-04-10T00:14:15.061Z,98.10
2023-04-10T00:16:41.649Z,97.56
2023-04-10T00:19:08.604Z,96.31
2023-04-10T00:21:35.048Z,95.46
2023-04-10T00:24:01.553Z,95.48
2023-04-10T00:26:28.123Z,97.46
2023-04-10T00:28:54.568Z,97.74
2023-04-10T00:31:21.104Z,96.73
2023-04-10T00:33:47.664Z,96.74
2023-04-10T00:36:14.272Z,96.57
2023-04-10T00:38:40.842Z,94.78
2023-04-10T00:41:07.310Z,95.01
2023-04-10T00:43:33.817Z,95.26
2023-04-10T00:46:00.833Z,95.58
2023-04-10T00:48:27.808Z,94.89
2023-04-10T00:50:54.364Z,95.37
2023-04-10T00:53:22.048Z,96.59
2023-04-10T00:55:49.508Z,97.65
2023-04-10T00:58:15.991Z,98.11
2023-04-10T01:00:42.480Z,97.80
2023-04-10T01:03:09.390Z,97.38
2023-04-10T01:05:41.921Z,97.36
2023-04-10T01:08:12.733Z,96.77
2023-04-10T01:10:47.845Z,97.22
2023-04-10T01:13:17.407Z,97.31
2023-04-10T01:15:58.771Z,97.71
2023-04-10T01:18:31.667Z,97.39
2023-04-10T01:20:59.294Z,96.92
2023-04-10T01:23:36.121Z,96.35
2023-04-10T01:26:07.228Z,96.48
2023-04-10T01:28:48.207Z,96.48
2023-04-10T01:31:37.789Z,97.59
2023-04-10T01:34:07.493Z,97.29
2023-04-10T01:36:38.031Z,98.14
2023-04-10T01:39:06.853Z,98.38
2023-04-10T01:41:34.285Z,97.94
2023-04-10T01:44:03.914Z,98.62
2023-04-10T01:46:31.131Z,98.07
2023-04-10T01:49:00.591Z,97.88
2023-04-10T01:51:27.865Z,96.57
2023-04-10T01:53:54.881Z,96.57
2023-04-10T01:56:25.277Z,96.78
2023-04-10T01:58:51.875Z,96.14
2023-04-10T02:01:29.183Z,97.45
2023-04-10T02:03:58.135Z,97.29
2023-04-10T02:06:41.237Z,96.97
2023-04-10T02:09:17.677Z,96.31
2023-04-10T02:11:55.027Z,96.61
2023-04-10T02:14:22.277Z,98.83
2023-04-10T02:16:51.741Z,99.38
2023-04-10T02:19:19.686Z,98.87
2023-04-10T02:21:47.129Z,97.55
2023-04-10T02:24:13.751Z,96.92
2023-04-10T02:26:52.719Z,96.66
2023-04-10T02:29:19.472Z,96.92
2023-04-10T02:31:46.698Z,97.44
2023-04-10T02:34:14.020Z,97.46
2023-04-10T02:36:40.680Z,96.87
2023-04-10T02:39:08.665Z,96.92
2023-04-10T02:41:44.444Z,97.13
2023-04-10T02:44:13.128Z,97.87
2023-04-10T02:46:39.807Z,97.19
2023-04-10T02:49:06.683Z,96.84
2023-04-10T02:51:37.080Z,96.47
2023-04-10T02:54:04.856Z,96.60
2023-04-10T02:56:36.041Z,96.86
2023-04-10T02:59:02.608Z,96.08
2023-04-10T03:01:30.823Z,95.66
2023-04-10T03:03:58.446Z,94.79
2023-04-10T03:06:31.435Z,95.20
2023-04-10T03:08:58.483Z,95.14
2023-04-10T03:11:27.012Z,95.07
2023-04-10T03:13:53.990Z,95.99
2023-04-10T03:16:20.839Z,95.65
2023-04-10T03:18:47.802Z,95.36
2023-04-10T03:21:14.406Z,95.24
2023-04-10T03:23:42.071Z,95.63
2023-04-10T03:26:08.697Z,95.87
2023-04-10T03:28:39.556Z,95.58
2023-04-10T03:31:06.528Z,95.60
2023-04-10T03:33:35.945Z,95.17
2023-04-10T03:36:03.787Z,95.10
2023-04-10T03:38:30.310Z,94.70
2023-04-10T03:40:56.910Z,94.38
2023-04-10T03:43:25.560Z,95.18
2023-04-10T03:45:52.047Z,95.21
2023-04-10T03:48:18.576Z,95.53
2023-04-10T03:50:46.721Z,96.43
2023-04-10T03:53:13.407Z,95.83
2023-04-10T03:55:41.079Z,96.82
2023-04-10T03:58:08.215Z,96.76
2023-04-10T04:00:35.853Z,97.73
2023-04-10T04:03:20.357Z,99.10
2023-04-10T04:06:04.253Z,99.49
2023-04-10T04:08:38.793Z,99.24
2023-04-10T04:11:40.697Z,97.78
2023-04-10T04:14:16.361Z,96.46
2023-04-10T04:17:14.970Z,96.16
2023-04-10T04:20:01.830Z,96.42
2023-04-10T04:22:47.125Z,95.80
2023-04-10T04:25:33.861Z,95.49
2023-04-10T04:28:18.889Z,95.07
2023-04-10T04:31:16.254Z,95.46
2023-04-10T04:34:05.363Z,96.19
2023-04-10T04:37:02.960Z,95.98
2023-04-10T04:39:32.100Z,95.69
2023-04-10T04:42:19.764Z,95.98
2023-04-10T04:45:01.915Z,95.21
2023-04-10T04:47:28.424Z,94.95
2023-04-10T04:50:18.764Z,95.73
2023-04-10T04:53:00.516Z,95.93
2023-04-10T04:55:47.153Z,96.91
2023-04-10T04:58:36.626Z,97.26
2023-04-10T05:01:29.409Z,96.27
2023-04-10T05:04:20.684Z,95.46
2023-04-10T05:07:05.706Z,95.69
2023-04-10T05:09:51.032Z,96.42
2023-04-10T05:12:36.187Z,96.14
2023-04-10T05:15:16.574Z,96.45
2023-04-10T05:18:03.520Z,96.12
2023-04-10T05:20:42.673Z,96.41
2023-04-10T05:23:37.353Z,95.84
2023-04-10T05:26:28.867Z,95.66
2023-04-10T05:29:27.660Z,96.32
2023-04-10T05:32:17.333Z,94.78
2023-04-10T05:34:58.129Z,95.01
2023-04-10T05:37:33.316Z,94.35
2023-04-10T05:40:26.344Z,93.66
2023-04-10T05:43:21.991Z,90.67
2023-04-10T05:46:01.492Z,90.77
2023-04-10T05:48:43.032Z,91.14
2023-04-10T05:51:35.766Z,92.11
2023-04-10T05:54:29.294Z,92.14
2023-04-10T05:57:08.862Z,89.65
2023-04-10T05:59:47.215Z,88.72
2023-04-10T06:02:25.938Z,89.37
2023-04-10T06:04:53.060Z,90.82
2023-04-10T06:07:20.048Z,88.47
2023-04-10T06:09:46.506Z,85.50
2023-04-10T06:12:13.020Z,84.93
2023-04-10T06:14:40.688Z,84.13
2023-04-10T06:17:07.693Z,85.26
2023-04-10T06:19:34.262Z,83.41
2023-04-10T06:22:00.915Z,81.94
2023-04-10T06:24:28.486Z,81.92
2023-04-10T06:26:56.854Z,80.21
2023-04-10T06:29:24.029Z,78.74
2023-04-10T06:31:50.665Z,80.49
2023-04-10T06:34:17.277Z,78.66
2023-04-10T06:36:53.398Z,75.30
2023-04-10T06:39:20.462Z,73.52
2023-04-10T06:41:47.820Z,73.31
2023-04-10T06:44:27.875Z,71.99
2023-04-10T06:46:54.530Z,69.89
2023-04-10T06:49:21.112Z,67.98
2023-04-10T06:51:48.441Z,67.91
2023-04-10T06:54:15.009Z,68.14
2023-04-10T06:56:41.486Z,68.54
2023-04-10T06:59:07.971Z,65.84
2023-04-10T07:01:34.528Z,64.78
2023-04-10T07:04:01.287Z,63.81
2023-04-10T07:06:28.352Z,64.50
2023-04-10T07:08:55.085Z,62.46
2023-04-10T07:11:21.807Z,60.23
2023-04-10T07:13:48.765Z,57.05
2023-04-10T07:16:17.024Z,56.46
2023-04-10T07:18:44.298Z,56.63
2023-04-10T07:21:13.247Z,51.98
2023-04-10T07:23:40.057Z,52.74
2023-04-10T07:26:06.688Z,49.02
2023-04-10T07:28:33.336Z,48.44
2023-04-10T07:30:59.912Z,46.56
2023-04-10T07:33:27.139Z,46.83
2023-04-10T07:35:53.690Z,46.08
2023-04-10T07:38:21.044Z,43.32
2023-04-10T07:40:47.725Z,43.94
2023-04-10T07:43:14.218Z,40.75
2023-04-10T07:45:41.047Z,39.82
2023-04-10T07:48:07.781Z,40.33
2023-04-10T07:50:34.351Z,42.72
2023-04-10T07:53:03.552Z,40.22
2023-04-10T07:55:30.385Z,39.58
2023-04-10T07:57:56.805Z,36.80
2023-04-10T08:00:23.352Z,38.02
2023-04-10T08:02:49.939Z,38.44
2023-04-10T08:05:16.720Z,39.90
2023-04-10T08:07:43.354Z,37.51
2023-04-10T08:10:09.971Z,38.58
2023-04-10T08:12:36.486Z,35.94
2023-04-10T08:15:02.990Z,36.69
2023-04-10T08:17:29.513Z,34.23
2023-04-10T08:19:56.311Z,35.80
2023-04-10T08:22:22.886Z,35.49
2023-04-10T08:24:49.350Z,35.09
2023-04-10T08:27:16.372Z,35.89
2023-04-10T08:29:43.256Z,32.13
2023-04-10T08:32:09.775Z,36.12
2023-04-10T08:34:36.250Z,36.47
2023-04-10T08:37:06.384Z,33.16
2023-04-10T08:39:34.826Z,31.67
2023-04-10T08:42:01.878Z,32.66
2023-04-10T08:44:28.502Z,32.83
2023-04-10T08:46:57.759Z,31.13
2023-04-10T08:49:36.488Z,31.55
2023-04-10T08:52:05.811Z,32.03
2023-04-10T08:54:33.197Z,34.20
2023-04-10T08:57:01.573Z,31.50
2023-04-10T08:59:29.857Z,31.95
2023-04-10T09:01:57.432Z,34.49
2023-04-10T09:04:24.964Z,33.28
2023-04-10T09:06:54.448Z,30.63
2023-04-10T09:09:21.312Z,30.11
2023-04-10T09:11:56.967Z,32.10
2023-04-10T09:14:30.623Z,32.30
2023-04-10T09:17:16.676Z,32.22
2023-04-10T09:19:44.330Z,33.14
2023-04-10T09:22:10.920Z,32.15
2023-04-10T09:24:38.884Z,33.69
2023-04-10T09:27:06.003Z,31.88
2023-04-10T09:29:41.405Z,31.26
2023-04-10T09:32:07.903Z,30.80
2023-04-10T09:34:34.328Z,29.46
2023-04-10T09:37:01.707Z,29.63
2023-04-10T09:39:35.762Z,32.41
2023-04-10T09:42:02.447Z,31.31
2023-04-10T09:44:32.744Z,32.26
2023-04-10T09:47:00.225Z,32.97
2023-04-10T09:49:26.839Z,29.43
2023-04-10T09:51:53.513Z,33.73
2023-04-10T09:54:34.873Z,30.85
2023-04-10T09:57:01.482Z,32.27
2023-04-10T09:59:28.072Z,36.66
2023-04-10T10:01:54.635Z,31.43
2023-04-10T10:04:21.477Z,31.39
2023-04-10T10:06:48.215Z,33.85
2023-04-10T10:09:15.362Z,35.48
2023-04-10T10:11:41.913Z,31.87
2023-04-10T10:14:13.176Z,30.51
2023-04-10T10:16:42.580Z,29.88
2023-04-10T10:19:24.601Z,29.78
2023-04-10T10:21:52.157Z,28.15
2023-04-10T10:24:19.919Z,27.06
2023-04-10T10:26:47.196Z,29.66
2023-04-10T10:29:15.591Z,33.97
2023-04-10T10:31:42.507Z,33.22
2023-04-10T10:34:09.792Z,32.34
2023-04-10T10:36:37.025Z,31.07
2023-04-10T10:39:23.009Z,34.29
2023-04-10T10:42:02.157Z,32.18
2023-04-10T10:44:44.073Z,32.54
2023-04-10T10:47:20.649Z,30.02
2023-04-10T10:50:05.446Z,29.01
2023-04-10T10:52:42.654Z,28.58
2023-04-10T10:55:24.745Z,31.04
2023-04-10T10:57:52.312Z,31.31
2023-04-10T11:00:19.545Z,31.63
2023-04-10T11:02:46.264Z,29.28
2023-04-10T11:05:32.756Z,28.88
2023-04-10T11:07:59.256Z,28.08
2023-04-10T11:10:44.331Z,28.69
2023-04-10T11:13:18.182Z,30.18
2023-04-10T11:15:44.824Z,29.95
2023-04-10T11:18:12.125Z,30.96
2023-04-10T11:20:57.491Z,33.25
2023-04-10T11:23:24.120Z,33.94
2023-04-10T11:25:51.896Z,33.51
2023-04-10T11:28:33.699Z,31.34
2023-04-10T11:31:21.730Z,31.11
2023-04-10T11:33:49.313Z,32.49
2023-04-10T11:36:19.610Z,30.04
2023-04-10T11:38:59.989Z,28.90
2023-04-10T11:41:27.770Z,30.50
2023-04-10T11:43:54.310Z,27.20
2023-04-10T11:46:20.997Z,28.70
2023-04-10T11:48:47.575Z,29.07
2023-04-10T11:51:14.703Z,27.29
2023-04-10T11:53:41.526Z,33.25
2023-04-10T11:56:18.414Z,32.97
2023-04-10T11:58:45.072Z,30.33
2023-04-10T12:01:14.423Z,32.35
2023-04-10T12:03:43.955Z,32.01
2023-04-10T12:06:11.495Z,31.25
2023-04-10T12:08:42.047Z,31.01
2023-04-10T12:11:10.177Z,32.02
2023-04-10T12:13:37.044Z,33.18
2023-04-10T12:16:04.851Z,33.68
2023-04-10T12:18:31.523Z,33.54
2023-04-10T12:20:59.369Z,33.68
2023-04-10T12:23:27.015Z,34.66
2023-04-10T12:25:54.259Z,34.58
2023-04-10T12:28:21.505Z,34.49
2023-04-10T12:30:53.990Z,32.01
2023-04-10T12:33:24.117Z,31.45
2023-04-10T12:35:52.027Z,29.83
2023-04-10T12:38:34.740Z,30.18
2023-04-10T12:41:01.414Z,30.42
2023-04-10T12:43:32.522Z,29.74
2023-04-10T12:45:59.392Z,29.78
2023-04-10T12:48:25.931Z,29.89
2023-04-10T12:50:52.437Z,27.62
2023-04-10T12:53:19.060Z,27.00
2023-04-10T12:56:02.309Z,29.00
2023-04-10T12:58:30.933Z,27.52
2023-04-10T13:01:04.896Z,30.64
2023-04-10T13:03:33.355Z,29.06
2023-04-10T13:05:59.924Z,27.03
2023-04-10T13:08:26.600Z,27.59
2023-04-10T13:10:53.141Z,32.09
2023-04-10T13:13:19.714Z,29.34
2023-04-10T13:15:46.218Z,28.72
2023-04-10T13:18:12.800Z,29.19
2023-04-10T13:20:40.261Z,29.26
2023-04-10T13:23:07.612Z,32.30
2023-04-10T13:25:35.581Z,32.69
2023-04-10T13:28:02.142Z,30.21
2023-04-10T13:30:29.128Z,31.28
2023-04-10T13:32:55.784Z,32.70
2023-04-10T13:35:22.391Z,30.89
2023-04-10T13:37:53.023Z,29.61
2023-04-10T13:40:20.289Z,29.18
2023-04-10T13:42:47.280Z,31.78
2023-04-10T13:45:13.948Z,28.19
2023-04-10T13:47:40.467Z,29.61
2023-04-10T13:50:07.348Z,29.98
2023-04-10T13:52:33.815Z,30.79
2023-04-10T13:55:00.286Z,30.87
2023-04-10T13:57:26.737Z,27.38
2023-04-10T13:59:53.535Z,29.14
2023-04-10T14:02:20.191Z,30.75
2023-04-10T14:04:47.544Z,29.87
2023-04-10T14:07:14.021Z,28.97
2023-04-10T14:09:40.719Z,29.76
2023-04-10T14:12:07.251Z,29.92
2023-04-10T14:14:33.878Z,29.27
2023-04-10T14:17:00.599Z,30.69
2023-04-10T14:19:27.161Z,29.94
2023-04-10T14:21:53.585Z,29.28
2023-04-10T14:24:21.374Z,30.74
2023-04-10T14:26:47.789Z,31.39
2023-04-10T14:29:16.186Z,30.19
2023-04-10T14:31:54.871Z,29.14
2023-04-10T14:34:24.316Z,30.53
2023-04-10T14:36:55.554Z,33.44
2023-04-10T14:39:25.559Z,29.90
2023-04-10T14:41:52.079Z,28.52
2023-04-10T14:44:18.538Z,28.67
2023-04-10T14:46:45.905Z,29.05
2023-04-10T14:49:13.033Z,30.30
2023-04-10T14:51:39.568Z,28.99
2023-04-10T14:54:06.123Z,30.10
2023-04-10T14:56:32.961Z,28.65
2023-04-10T14:58:59.380Z,29.76
2023-04-10T15:01:25.933Z,28.94
2023-04-10T15:03:53.451Z,29.64
2023-04-10T15:06:20.392Z,31.30
2023-04-10T15:08:46.973Z,31.94
2023-04-10T15:11:13.447Z,31.74
2023-04-10T15:13:39.939Z,31.79
2023-04-10T15:16:08.059Z,30.40
2023-04-10T15:18:34.601Z,30.87
2023-04-10T15:21:01.030Z,31.84
2023-04-10T15:23:27.515Z,30.88
2023-04-10T15:25:54.804Z,29.63
2023-04-10T15:28:21.330Z,31.46
2023-04-10T15:30:49.714Z,31.36
2023-04-10T15:33:16.967Z,31.93
2023-04-10T15:35:47.749Z,32.52
2023-04-10T15:38:14.241Z,31.50
2023-04-10T15:40:40.715Z,32.61
2023-04-10T15:43:07.218Z,33.27
2023-04-10T15:45:35.532Z,34.30
2023-04-10T15:48:04.260Z,33.28
2023-04-10T15:50:31.076Z,33.80
2023-04-10T15:52:57.536Z,33.58
2023-04-10T15:55:23.980Z,34.19
2023-04-10T15:57:50.507Z,34.87
2023-04-10T16:00:17.167Z,34.04
2023-04-10T16:02:43.829Z,34.09
2023-04-10T16:05:10.781Z,34.39
2023-04-10T16:07:39.005Z,34.70
2023-04-10T16:10:06.009Z,35.43
2023-04-10T16:12:32.501Z,35.30
2023-04-10T16:14:58.902Z,35.12
2023-04-10T16:17:25.425Z,35.76
2023-04-10T16:19:51.898Z,35.84
2023-04-10T16:22:18.410Z,36.21
2023-04-10T16:24:44.847Z,36.43
2023-04-10T16:27:11.347Z,36.46
2023-04-10T16:29:37.828Z,36.42
2023-04-10T16:32:04.333Z,37.00
2023-04-10T16:34:30.921Z,37.17
2023-04-10T16:36:57.444Z,36.51
2023-04-10T16:39:23.885Z,37.61
2023-04-10T16:41:50.309Z,37.60
2023-04-10T16:44:16.824Z,37.42
2023-04-10T16:46:43.414Z,37.81
2023-04-10T16:49:09.871Z,38.09
2023-04-10T16:51:36.541Z,38.19
2023-04-10T16:54:03.735Z,38.69
2023-04-10T16:56:33.267Z,38.35
2023-04-10T16:58:59.727Z,38.45
2023-04-10T17:01:26.465Z,38.98
2023-04-10T17:03:53.517Z,39.65
2023-04-10T17:06:20.080Z,40.40
2023-04-10T17:08:46.515Z,40.19
2023-04-10T17:11:13.165Z,40.32
2023-04-10T17:13:40.389Z,40.94
2023-04-10T17:16:07.566Z,44.04
2023-04-10T17:18:34.062Z,45.25
2023-04-10T17:21:00.613Z,45.79
2023-04-10T17:23:27.035Z,48.04
2023-04-10T17:25:53.583Z,48.35
2023-04-10T17:28:20.195Z,48.42
2023-04-10T17:30:48.345Z,49.36
2023-04-10T17:33:14.861Z,49.60
2023-04-10T17:35:41.801Z,49.89
2023-04-10T17:38:08.444Z,49.43
2023-04-10T17:40:35.125Z,50.20
2023-04-10T17:43:01.674Z,50.20
2023-04-10T17:45:28.152Z,49.78
2023-04-10T17:47:54.743Z,50.91
2023-04-10T17:50:21.343Z,50.13
2023-04-10T17:52:47.803Z,50.27
2023-04-10T17:55:18.408Z,51.45
2023-04-10T17:57:47.448Z,50.71
2023-04-10T18:00:20.011Z,51.38
2023-04-10T18:02:47.918Z,51.58
2023-04-10T18:05:14.798Z,52.07
2023-04-10T18:07:41.305Z,53.14
2023-04-10T18:10:10.592Z,52.68
2023-04-10T18:12:37.751Z,52.03
2023-04-10T18:15:04.432Z,51.53
2023-04-10T18:17:30.936Z,52.40
2023-04-10T18:19:57.537Z,52.58
2023-04-10T18:22:24.029Z,52.80
2023-04-10T18:24:50.576Z,53.15
2023-04-10T18:27:17.048Z,53.34
2023-04-10T18:29:43.508Z,53.46
2023-04-10T18:32:10.003Z,52.71
2023-04-10T18:34:36.502Z,54.08
2023-04-10T18:37:02.976Z,53.88
2023-04-10T18:39:29.442Z,53.52
2023-04-10T18:41:57.674Z,54.15
2023-04-10T18:44:24.177Z,54.13
2023-04-10T18:47:01.236Z,54.79
2023-04-10T18:49:31.053Z,53.86
2023-04-10T18:51:57.527Z,53.40
2023-04-10T18:54:26.934Z,54.00
2023-04-10T18:56:53.538Z,54.67
2023-04-10T18:59:20.084Z,56.33
2023-04-10T19:01:46.712Z,55.79
2023-04-10T19:04:13.310Z,56.38
2023-04-10T19:06:41.018Z,56.29
2023-04-10T19:09:10.520Z,57.44
2023-04-10T19:11:37.523Z,58.33
2023-04-10T19:14:04.027Z,58.92
2023-04-10T19:18:57.934Z,60.91
2023-04-10T19:21:24.506Z,61.75
2023-04-10T19:23:50.961Z,63.07
2023-04-10T19:26:19.816Z,63.49
2023-04-10T19:28:46.446Z,63.90
2023-04-10T19:31:13.080Z,62.90
2023-04-10T19:33:39.663Z,63.00
2023-04-10T19:36:08.162Z,63.36
2023-04-10T19:38:35.086Z,62.98
2023-04-10T19:41:01.563Z,62.70
2023-04-10T19:43:28.100Z,63.16
2023-04-10T19:45:55.113Z,62.34
2023-04-10T19:48:21.607Z,62.55
2023-04-10T19:50:48.129Z,62.61
2023-04-10T19:53:15.590Z,63.09
2023-04-10T19:55:44.118Z,64.93
2023-04-10T19:58:17.023Z,64.09
2023-04-10T20:00:47.434Z,62.86
2023-04-10T20:03:16.120Z,64.23
2023-04-10T20:05:42.898Z,63.99
2023-04-10T20:08:09.363Z,63.20
2023-04-10T20:10:35.907Z,63.00
2023-04-10T20:13:02.349Z,65.00
2023-04-10T20:15:28.829Z,65.04
2023-04-10T20:17:55.277Z,65.19
2023-04-10T20:20:21.916Z,64.91
2023-04-10T20:22:48.590Z,64.82
2023-04-10T20:25:15.406Z,66.52
2023-04-10T20:27:41.868Z,66.16
2023-04-10T20:30:08.557Z,65.44
2023-04-10T20:32:35.101Z,66.38
2023-04-10T20:35:01.564Z,67.22
2023-04-10T20:37:28.057Z,67.76
2023-04-10T20:39:54.540Z,67.94
2023-04-10T20:42:21.058Z,68.89
2023-04-10T20:44:47.604Z,69.90
2023-04-10T20:47:14.097Z,69.99
2023-04-10T20:49:40.716Z,69.47
2023-04-10T20:52:07.271Z,69.25
2023-04-10T20:54:33.901Z,69.89
2023-04-10T20:57:01.697Z,68.92
2023-04-10T20:59:29.068Z,68.54
2023-04-10T21:01:55.610Z,69.98
2023-04-10T21:04:22.319Z,70.07
2023-04-10T21:06:48.796Z,70.66
2023-04-10T21:09:15.295Z,71.08
2023-04-10T21:11:41.819Z,70.71
2023-04-10T21:14:08.515Z,71.49
2023-04-10T21:16:37.439Z,72.66
2023-04-10T21:19:04.007Z,72.25
2023-04-10T21:21:31.144Z,71.95
2023-04-10T21:23:57.673Z,71.91
2023-04-10T21:26:24.139Z,72.13
2023-04-10T21:28:50.715Z,73.81
2023-04-10T21:31:17.180Z,74.10
2023-04-10T21:33:44.226Z,74.17
2023-04-10T21:36:10.825Z,74.66
2023-04-10T21:38:37.433Z,74.50
2023-04-10T21:41:04.107Z,74.11
2023-04-10T21:43:30.643Z,74.01
2023-04-10T21:45:57.089Z,73.74
2023-04-10T21:48:24.743Z,73.77
2023-04-10T21:50:52.784Z,73.69
2023-04-10T21:53:20.340Z,74.10
2023-04-10T21:55:47.213Z,74.37
2023-04-10T21:58:13.666Z,75.78
2023-04-10T22:00:41.497Z,76.30
2023-04-10T22:03:09.699Z,75.65
2023-04-10T22:05:36.386Z,75.76
2023-04-10T22:08:02.820Z,76.49
2023-04-10T22:10:29.256Z,77.39
2023-04-10T22:12:55.811Z,76.80
2023-04-10T22:15:22.522Z,76.66
2023-04-10T22:17:49.104Z,76.58
2023-04-10T22:20:16.094Z,76.66
2023-04-10T22:22:42.541Z,75.70
2023-04-10T22:25:09.229Z,75.72
2023-04-10T22:27:35.701Z,75.85
2023-04-10T22:30:03.941Z,75.96
2023-04-10T22:32:31.630Z,75.39
2023-04-10T22:34:59.021Z,76.58
2023-04-10T22:37:25.899Z,76.63
2023-04-10T22:39:52.431Z,76.62
2023-04-10T22:42:18.922Z,77.01
2023-04-10T22:44:45.568Z,77.45
2023-04-10T22:47:13.861Z,77.04
2023-04-10T22:49:40.612Z,76.83
2023-04-10T22:52:07.083Z,76.67
2023-04-10T22:54:33.547Z,77.45
2023-04-10T22:57:00.274Z,77.82
2023-04-10T22:59:26.727Z,78.20
2023-04-10T23:01:53.229Z,78.52
2023-04-10T23:04:19.862Z,79.14
2023-04-10T23:06:46.610Z,80.46
2023-04-10T23:09:13.111Z,80.38
2023-04-10T23:11:39.584Z,80.89
2023-04-10T23:14:06.097Z,80.18
2023-04-10T23:16:32.577Z,79.61
2023-04-10T23:18:59.064Z,79.79
2023-04-10T23:21:25.600Z,79.57
2023-04-10T23:23:52.047Z,80.47
2023-04-10T23:26:19.393Z,79.63
2023-04-10T23:28:45.939Z,79.71
2023-04-10T23:31:12.539Z,80.57
2023-04-10T23:33:39.010Z,80.11
2023-04-10T23:36:05.969Z,79.29
2023-04-10T23:38:32.528Z,79.11
2023-04-10T23:40:59.000Z,78.39
2023-04-10T23:43:25.759Z,79.80
2023-04-10T23:45:52.202Z,79.69
2023-04-10T23:48:18.712Z,79.13
2023-04-10T23:50:45.192Z,79.19
2023-04-10T23:53:13.988Z,79.27
2023-04-10T23:55:41.476Z,79.23
2023-04-10T23:58:08.052Z,79.22
